Wilson, Arkansas
Current Conditions -  °F | °C
As of 3:50 PM on Friday 24 Oct 2014 (Local Time) from KNQA Reporting Station
Few Clouds Few Clouds  
Wind Chill: 75°   Ceiling: Unl
Heat Index: 75°   Visibility: 10mi
Dew Point: 55°   Wind: 5mph
Humidity: 50%   Direction: 340°NNW
Pressure: 30.08"   Gusts: NA
Location:  35.57°N, 90.04°W
Report Text: KNQA 242050Z 34004KT 10SM FEW250 24/13 A3008
Loading
Personal Weather Stations






























Interactive Weather Map
Tropical Storm Tracking
New forecast layout! Learn more

10-Day Weather Forecast

Advertisements
Track Severe Weather on mobile